Sanpo Maru No.5 — JL6343 — position and weather

sailwx.info

Track history (hours):
 
Tides and Currents Weather Stations Pressure Air Temp Water Temp Dewpoint Dewpoint Depression Visibility Wind Speed Wind Dir Waves Ship Positions

Sanpo Maru No.5

Last reported at 2016-Aug-27 02:32 UTC. Time now 2016-Aug-31 00:28 UTC.
Position N 34°40' E 134°47'.

Length 71 m; draft 4.5 m.

Type: Ship. MMSI: 431500283.

Date/timePositionNaut miles runAvg speedWind from/ knotsBaromVisibWave heightAir tempDewpointWater temp
2016-Aug-27 02:32N 34°40' E 134°47'9 9.2
2016-Aug-27 01:33N 34°38' E 134°58'7 6.9
2016-Aug-27 00:30N 34°34' E 135°05'10 9.4
2016-Aug-26 23:26N 34°24' E 135°02'9 9.0
2016-Aug-26 22:25N 34°15' E 134°59'8 9.7
2016-Aug-26 21:33N 34°07' E 134°59'242 5.9
2016-Aug-25 04:33N 35°08' E 139°43'1010.1
2016-Aug-25 03:33N 35°18' E 139°44'10 9.6
2016-Aug-25 02:34N 35°27' E 139°48'1110.7
2016-Aug-25 01:33N 35°31' E 140°00'2 2.1
2016-Aug-25 00:33N 35°31' E 140°03'0 0.0
2016-Aug-24 23:30N 35°31' E 140°03'1 1.1
2016-Aug-24 22:19N 35°31' E 140°01'0 0.0
2016-Aug-24 21:33N 35°31' E 140°01'1010.0
2016-Aug-24 20:33N 35°27' E 139°50'1010.1
2016-Aug-24 19:33N 35°18' E 139°45'10 9.8
2016-Aug-24 18:33N 35°08' E 139°46'1010.5
2016-Aug-24 17:33N 34°58' E 139°44'11 8.6
2016-Aug-24 16:15N 34°52' E 139°56'710.0
2016-Aug-24 15:33N 34°56' E 140°03'10 9.3
2016-Aug-24 14:32N 35°01' E 140°13'10 9.7
2016-Aug-24 13:30N 35°07' E 140°23'1010.6
2016-Aug-24 12:33N 35°14' E 140°31'1111.0
2016-Aug-24 11:33N 35°23' E 140°40'1711.2
2016-Aug-24 10:03N 35°37' E 140°51'610.7
2016-Aug-24 09:31N 35°42' E 140°55'1410.3
2016-Aug-24 08:11N 35°55' E 140°52'710.3
2016-Aug-24 07:33N 36°02' E 140°51'  
2016-Aug-19 10:26N 35°55' E 140°41'1 0.2
2016-Aug-19 04:30N 35°56' E 140°42'  
Track history (hours):
 
Tides and Currents Weather Stations Pressure Air Temp Water Temp Dewpoint Dewpoint Depression Visibility Wind Speed Wind Dir Waves Ship Positions

Sanpo Maru No.5

Last reported at 2016-Aug-27 02:32 UTC. Time now 2016-Aug-31 00:28 UTC.
Position N 34°40' E 134°47'.

Length 71 m; draft 4.5 m.

Type: Ship. MMSI: 431500283.

Date/timePositionNaut miles runAvg speedWind from/ knotsBaromVisibWave heightAir tempDewpointWater temp
2016-Aug-27 02:32N 34°40' E 134°47'9 9.2
2016-Aug-27 01:33N 34°38' E 134°58'7 6.9
2016-Aug-27 00:30N 34°34' E 135°05'10 9.4
2016-Aug-26 23:26N 34°24' E 135°02'9 9.0
2016-Aug-26 22:25N 34°15' E 134°59'8 9.7
2016-Aug-26 21:33N 34°07' E 134°59'242 5.9
2016-Aug-25 04:33N 35°08' E 139°43'1010.1
2016-Aug-25 03:33N 35°18' E 139°44'10 9.6
2016-Aug-25 02:34N 35°27' E 139°48'1110.7
2016-Aug-25 01:33N 35°31' E 140°00'2 2.1
2016-Aug-25 00:33N 35°31' E 140°03'0 0.0
2016-Aug-24 23:30N 35°31' E 140°03'1 1.1
2016-Aug-24 22:19N 35°31' E 140°01'0 0.0
2016-Aug-24 21:33N 35°31' E 140°01'1010.0
2016-Aug-24 20:33N 35°27' E 139°50'1010.1
2016-Aug-24 19:33N 35°18' E 139°45'10 9.8
2016-Aug-24 18:33N 35°08' E 139°46'1010.5
2016-Aug-24 17:33N 34°58' E 139°44'11 8.6
2016-Aug-24 16:15N 34°52' E 139°56'710.0
2016-Aug-24 15:33N 34°56' E 140°03'10 9.3
2016-Aug-24 14:32N 35°01' E 140°13'10 9.7
2016-Aug-24 13:30N 35°07' E 140°23'1010.6
2016-Aug-24 12:33N 35°14' E 140°31'1111.0
2016-Aug-24 11:33N 35°23' E 140°40'1711.2
2016-Aug-24 10:03N 35°37' E 140°51'610.7
2016-Aug-24 09:31N 35°42' E 140°55'1410.3
2016-Aug-24 08:11N 35°55' E 140°52'710.3
2016-Aug-24 07:33N 36°02' E 140°51'  
2016-Aug-19 10:26N 35°55' E 140°41'1 0.2
2016-Aug-19 04:30N 35°56' E 140°42'  

Dump ship's entire track history